createdAt,value
2018-08-27T00:01:03.596Z,100400.89
2018-08-27T00:03:31.675Z,100395.30
2018-08-27T00:05:59.762Z,100389.59
2018-08-27T00:08:27.858Z,100384.42
2018-08-27T00:10:55.985Z,100389.22
2018-08-27T00:13:24.100Z,100379.86
2018-08-27T00:15:52.151Z,100382.91
2018-08-27T00:18:20.207Z,100383.98
2018-08-27T00:20:48.313Z,100385.13
2018-08-27T00:23:16.370Z,100381.44
2018-08-27T00:25:44.455Z,100375.45
2018-08-27T00:28:12.579Z,100366.00
2018-08-27T00:30:40.701Z,100363.61
2018-08-27T00:33:08.759Z,100363.61
2018-08-27T00:35:36.851Z,100366.75
2018-08-27T00:38:05.037Z,100372.14
2018-08-27T00:40:33.136Z,100369.98
2018-08-27T00:43:01.219Z,100367.97
2018-08-27T00:45:29.288Z,100365.03
2018-08-27T00:47:57.411Z,100367.94
2018-08-27T00:50:25.504Z,100366.31
2018-08-27T00:52:53.647Z,100360.92
2018-08-27T00:55:21.809Z,100354.73
2018-08-27T00:57:49.917Z,100340.22
2018-08-27T01:00:18.068Z,100340.06
2018-08-27T01:02:46.187Z,100327.63
2018-08-27T01:05:14.283Z,100331.74
2018-08-27T01:07:42.361Z,100321.34
2018-08-27T01:10:10.515Z,100329.20
2018-08-27T01:12:38.589Z,100328.17
2018-08-27T01:15:06.906Z,100328.37
2018-08-27T01:17:34.992Z,100325.09
2018-08-27T01:20:03.095Z,100325.80
2018-08-27T01:22:31.240Z,100320.84
2018-08-27T01:24:59.223Z,100318.94
2018-08-27T01:27:27.367Z,100319.41
2018-08-27T01:29:55.448Z,100315.06
2018-08-27T01:32:25.962Z,100316.04
2018-08-27T01:34:54.731Z,100320.59
2018-08-27T01:37:22.850Z,100319.83
2018-08-27T01:39:50.959Z,100321.18
2018-08-27T01:42:19.049Z,100327.62
2018-08-27T01:44:47.116Z,100323.84
2018-08-27T01:47:15.295Z,100316.35
2018-08-27T01:49:43.437Z,100309.61
2018-08-27T01:52:11.842Z,100311.84
2018-08-27T01:54:39.904Z,100311.52
2018-08-27T01:57:07.976Z,100316.25
2018-08-27T01:59:36.048Z,100315.14
2018-08-27T02:02:04.437Z,100307.67
2018-08-27T02:04:32.551Z,100315.91
2018-08-27T02:07:00.660Z,100311.62
2018-08-27T02:09:28.740Z,100315.73
2018-08-27T02:11:58.063Z,100315.66
2018-08-27T02:14:27.263Z,100317.39
2018-08-27T02:16:55.465Z,100316.56
2018-08-27T02:19:23.636Z,100314.55
2018-08-27T02:21:52.744Z,100320.89
2018-08-27T02:24:20.853Z,100322.23
2018-08-27T02:26:48.932Z,100318.53
2018-08-27T02:29:17.010Z,100315.45
2018-08-27T02:31:45.141Z,100320.30
2018-08-27T02:34:13.295Z,100314.98
2018-08-27T02:36:41.359Z,100312.59
2018-08-27T02:39:11.761Z,100317.82
2018-08-27T02:41:39.864Z,100313.36
2018-08-27T02:44:07.965Z,100309.51
2018-08-27T02:46:36.027Z,100312.76
2018-08-27T02:49:04.101Z,100309.93
2018-08-27T02:51:32.219Z,100307.12
2018-08-27T02:54:00.336Z,100298.45
2018-08-27T02:56:28.420Z,100293.88
2018-08-27T02:58:56.528Z,100289.55
2018-08-27T03:01:24.592Z,100282.56
2018-08-27T03:03:52.739Z,100275.66
2018-08-27T03:06:20.842Z,100286.20
2018-08-27T03:08:48.911Z,100295.81
2018-08-27T03:11:16.986Z,100292.49
2018-08-27T03:13:51.864Z,100296.41
2018-08-27T03:16:20.120Z,100285.50
2018-08-27T03:18:48.319Z,100275.63
2018-08-27T03:21:16.642Z,100281.63
2018-08-27T03:23:44.851Z,100287.34
2018-08-27T03:26:13.045Z,100285.81
2018-08-27T03:28:41.171Z,100287.30
2018-08-27T03:31:09.244Z,100285.24
2018-08-27T03:33:37.322Z,100278.74
2018-08-27T03:36:05.743Z,100286.47
2018-08-27T03:38:33.830Z,100281.13
2018-08-27T03:41:01.922Z,100286.78
2018-08-27T03:43:30.012Z,100294.40
2018-08-27T03:45:58.099Z,100287.20
2018-08-27T03:48:26.181Z,100269.33
2018-08-27T03:50:54.241Z,100263.75
2018-08-27T03:53:22.447Z,100255.13
2018-08-27T03:55:50.513Z,100253.55
2018-08-27T03:58:18.594Z,100260.30
2018-08-27T04:04:00.069Z,100261.89
2018-08-27T04:06:28.136Z,100266.04
2018-08-27T04:10:41.399Z,100267.87
2018-08-27T04:13:09.519Z,100268.97
2018-08-27T04:15:37.584Z,100267.72
2018-08-27T04:18:06.004Z,100258.67
2018-08-27T04:20:34.100Z,100258.66
2018-08-27T04:23:02.230Z,100245.40
2018-08-27T04:25:30.360Z,100249.45
2018-08-27T04:27:58.447Z,100249.81
2018-08-27T04:30:26.615Z,100253.91
2018-08-27T04:32:54.675Z,100246.10
2018-08-27T04:35:22.760Z,100244.41
2018-08-27T04:37:50.859Z,100247.14
2018-08-27T04:40:18.952Z,100240.19
2018-08-27T04:42:47.032Z,100248.92
2018-08-27T04:45:15.123Z,100249.32
2018-08-27T04:47:43.205Z,100256.47
2018-08-27T04:50:11.295Z,100269.88
2018-08-27T04:52:39.447Z,100269.11
2018-08-27T04:55:07.616Z,100280.34
2018-08-27T04:57:35.723Z,100297.55
2018-08-27T05:00:07.760Z,100304.12
2018-08-27T05:02:35.852Z,100297.50
2018-08-27T05:05:04.123Z,100291.34
2018-08-27T05:07:32.259Z,100296.22
2018-08-27T05:10:00.504Z,100288.05
2018-08-27T05:12:28.647Z,100285.85
2018-08-27T05:14:56.758Z,100284.53
2018-08-27T05:17:24.980Z,100287.36
2018-08-27T05:19:53.052Z,100285.74
2018-08-27T05:22:21.220Z,100287.16
2018-08-27T05:24:49.327Z,100288.95
2018-08-27T05:27:17.443Z,100289.03
2018-08-27T05:29:45.624Z,100286.27
2018-08-27T05:32:13.820Z,100282.50
2018-08-27T05:34:41.937Z,100283.50
2018-08-27T05:37:10.001Z,100279.44
2018-08-27T05:39:38.123Z,100284.46
2018-08-27T05:42:06.233Z,100290.42
2018-08-27T05:44:34.430Z,100293.98
2018-08-27T05:47:02.544Z,100299.87
2018-08-27T05:49:30.689Z,100308.13
2018-08-27T05:51:58.916Z,100302.18
2018-08-27T05:54:27.071Z,100313.59
2018-08-27T05:56:55.129Z,100313.56
2018-08-27T05:59:23.191Z,100323.77
2018-08-27T06:01:51.904Z,100325.67
2018-08-27T06:04:19.967Z,100332.77
2018-08-27T06:06:48.092Z,100329.80
2018-08-27T06:09:16.232Z,100330.83
2018-08-27T06:11:44.297Z,100326.69
2018-08-27T06:14:12.370Z,100321.06
2018-08-27T06:16:40.468Z,100324.06
2018-08-27T06:19:08.558Z,100317.27
2018-08-27T06:21:36.615Z,100306.38
2018-08-27T06:24:04.784Z,100310.27
2018-08-27T06:26:32.863Z,100311.72
2018-08-27T06:29:00.964Z,100310.75
2018-08-27T06:31:29.175Z,100309.73
2018-08-27T06:33:57.258Z,100316.63
2018-08-27T06:36:25.340Z,100318.84
2018-08-27T06:38:53.570Z,100322.50
2018-08-27T06:41:21.714Z,100315.28
2018-08-27T06:43:49.741Z,100317.34
2018-08-27T06:46:17.902Z,100315.11
2018-08-27T06:48:45.939Z,100319.86
2018-08-27T06:51:14.039Z,100319.83
2018-08-27T06:53:42.128Z,100327.33
2018-08-27T06:56:10.358Z,100324.98
2018-08-27T06:58:38.421Z,100322.88
2018-08-27T07:01:06.528Z,100324.22
2018-08-27T07:03:34.590Z,100322.91
2018-08-27T07:06:02.701Z,100323.80
2018-08-27T07:08:30.776Z,100316.57
2018-08-27T07:10:58.859Z,100314.28
2018-08-27T07:13:26.976Z,100318.64
2018-08-27T07:15:55.059Z,100313.05
2018-08-27T07:18:23.192Z,100319.73
2018-08-27T07:20:51.273Z,100325.61
2018-08-27T07:23:19.397Z,100321.25
2018-08-27T07:25:47.462Z,100322.11
2018-08-27T07:28:15.553Z,100315.41
2018-08-27T07:30:43.784Z,100325.05
2018-08-27T07:33:11.863Z,100317.82
2018-08-27T07:35:39.966Z,100320.41
2018-08-27T07:38:08.023Z,100333.33
2018-08-27T07:40:36.100Z,100327.10
2018-08-27T07:43:04.167Z,100335.78
2018-08-27T07:45:32.256Z,100336.89
2018-08-27T07:48:00.323Z,100335.09
2018-08-27T07:50:28.401Z,100334.50
2018-08-27T07:52:56.488Z,100342.66
2018-08-27T07:55:24.578Z,100346.50
2018-08-27T07:57:52.648Z,100345.34
2018-08-27T08:00:22.375Z,100352.57
2018-08-27T08:02:51.565Z,100348.05
2018-08-27T08:05:19.783Z,100344.57
2018-08-27T08:07:48.195Z,100344.57
2018-08-27T08:10:16.732Z,100346.45
2018-08-27T08:12:45.963Z,100350.42
2018-08-27T08:15:14.073Z,100351.28
2018-08-27T08:17:42.162Z,100354.45
2018-08-27T08:20:10.243Z,100354.88
2018-08-27T08:22:38.348Z,100355.36
2018-08-27T08:25:06.415Z,100359.14
2018-08-27T08:27:34.521Z,100359.14
2018-08-27T08:30:02.611Z,100359.78
2018-08-27T08:32:30.745Z,100366.92
2018-08-27T08:34:58.840Z,100373.44
2018-08-27T08:37:26.960Z,100381.72
2018-08-27T08:39:55.314Z,100369.77
2018-08-27T08:42:23.246Z,100383.55
2018-08-27T08:44:51.351Z,100377.16
2018-08-27T08:47:19.448Z,100378.05
2018-08-27T08:49:47.631Z,100375.11
2018-08-27T08:52:15.710Z,100374.78
2018-08-27T08:54:43.772Z,100380.98
2018-08-27T08:57:11.892Z,100384.89
2018-08-27T08:59:40.083Z,100384.83
2018-08-27T09:02:08.238Z,100382.27
2018-08-27T09:04:36.311Z,100387.80
2018-08-27T09:07:04.564Z,100386.69
2018-08-27T09:09:32.667Z,100387.67
2018-08-27T09:12:00.817Z,100389.45
2018-08-27T09:14:28.932Z,100389.48
2018-08-27T09:16:57.079Z,100395.97
2018-08-27T09:19:25.215Z,100400.16
2018-08-27T09:21:53.304Z,100408.77
2018-08-27T09:24:21.464Z,100405.63
2018-08-27T09:26:49.628Z,100405.95
2018-08-27T09:29:17.732Z,100402.57
2018-08-27T09:31:45.876Z,100395.75
2018-08-27T09:34:14.031Z,100399.13
2018-08-27T09:36:42.109Z,100396.87
2018-08-27T09:39:10.412Z,100394.48
2018-08-27T09:41:38.741Z,100393.34
2018-08-27T09:44:06.895Z,100395.77
2018-08-27T09:46:35.030Z,100388.56
2018-08-27T09:49:03.215Z,100378.30
2018-08-27T09:51:31.360Z,100386.95
2018-08-27T09:53:59.585Z,100400.20
2018-08-27T09:56:28.117Z,100390.02
2018-08-27T09:58:56.252Z,100395.41
2018-08-27T10:01:29.779Z,100392.80
2018-08-27T10:03:57.901Z,100390.30
2018-08-27T10:06:26.060Z,100390.04
2018-08-27T10:08:54.148Z,100399.31
2018-08-27T10:11:22.204Z,100394.70
2018-08-27T10:13:50.328Z,100391.84
2018-08-27T10:16:18.476Z,100391.14
2018-08-27T10:18:46.562Z,100404.36
2018-08-27T10:21:14.658Z,100397.30
2018-08-27T10:23:42.784Z,100398.63
2018-08-27T10:26:10.884Z,100390.98
2018-08-27T10:28:39.035Z,100407.67
2018-08-27T10:31:07.326Z,100417.34
2018-08-27T10:33:35.560Z,100425.51
2018-08-27T10:36:03.699Z,100428.00
2018-08-27T10:38:31.796Z,100425.89
2018-08-27T10:41:00.057Z,100423.77
2018-08-27T10:43:28.217Z,100422.55
2018-08-27T10:45:56.350Z,100430.61
2018-08-27T10:48:24.514Z,100424.72
2018-08-27T10:50:52.615Z,100423.44
2018-08-27T10:53:20.701Z,100414.46
2018-08-27T10:55:48.763Z,100419.22
2018-08-27T10:58:16.919Z,100423.33
2018-08-27T11:00:45.116Z,100420.67
2018-08-27T11:03:13.345Z,100426.06
2018-08-27T11:05:41.505Z,100421.41
2018-08-27T11:08:09.586Z,100427.09
2018-08-27T11:10:37.784Z,100424.26
2018-08-27T11:13:05.996Z,100420.11
2018-08-27T11:15:34.127Z,100418.52
2018-08-27T11:18:02.490Z,100430.06
2018-08-27T11:20:30.743Z,100423.70
2018-08-27T11:22:58.741Z,100435.75
2018-08-27T11:25:26.959Z,100427.63
2018-08-27T11:27:55.075Z,100436.84
2018-08-27T11:30:23.353Z,100434.39
2018-08-27T11:32:51.504Z,100430.17
2018-08-27T11:35:19.632Z,100428.50
2018-08-27T11:37:47.703Z,100425.12
2018-08-27T11:40:15.767Z,100423.33
2018-08-27T11:42:44.241Z,100424.95
2018-08-27T11:45:12.328Z,100429.59
2018-08-27T11:47:40.420Z,100419.13
2018-08-27T11:50:09.298Z,100430.30
2018-08-27T11:52:37.471Z,100427.19
2018-08-27T11:55:06.384Z,100428.00
2018-08-27T11:57:34.352Z,100430.15
2018-08-27T12:00:02.419Z,100418.54
2018-08-27T12:02:30.496Z,100421.78
2018-08-27T12:04:58.585Z,100424.98
2018-08-27T12:07:26.651Z,100436.75
2018-08-27T12:09:54.731Z,100435.47
2018-08-27T12:12:22.799Z,100430.14
2018-08-27T12:14:50.903Z,100438.98
2018-08-27T12:17:18.959Z,100437.30
2018-08-27T12:19:47.069Z,100443.31
2018-08-27T12:22:15.146Z,100435.70
2018-08-27T12:24:43.220Z,100430.31
2018-08-27T12:27:11.311Z,100438.95
2018-08-27T12:29:39.417Z,100438.84
2018-08-27T12:32:07.482Z,100447.27
2018-08-27T12:34:35.607Z,100447.80
2018-08-27T12:37:03.699Z,100435.30
2018-08-27T12:39:31.782Z,100443.92
2018-08-27T12:41:59.870Z,100447.16
2018-08-27T12:44:27.946Z,100454.01
2018-08-27T12:46:56.009Z,100451.80
2018-08-27T12:49:24.085Z,100441.14
2018-08-27T12:51:52.147Z,100432.81
2018-08-27T12:54:20.229Z,100427.45
2018-08-27T12:56:48.314Z,100431.27
2018-08-27T12:59:16.404Z,100433.30
2018-08-27T13:01:44.517Z,100440.02
2018-08-27T13:04:12.571Z,100440.72
2018-08-27T13:06:40.640Z,100452.81
2018-08-27T13:09:09.606Z,100456.24
2018-08-27T13:11:37.891Z,100470.48
2018-08-27T13:14:06.216Z,100456.22
2018-08-27T13:16:34.374Z,100451.31
2018-08-27T13:19:02.783Z,100450.27
2018-08-27T13:21:30.854Z,100442.86
2018-08-27T13:23:58.939Z,100452.29
2018-08-27T13:26:26.999Z,100458.56
2018-08-27T13:28:55.103Z,100459.42
2018-08-27T13:31:23.245Z,100457.19
2018-08-27T13:33:51.275Z,100460.05
2018-08-27T13:36:19.350Z,100463.02
2018-08-27T13:38:47.519Z,100465.25
2018-08-27T13:41:15.801Z,100458.72
2018-08-27T13:43:44.020Z,100462.33
2018-08-27T13:46:12.095Z,100464.72
2018-08-27T13:48:40.216Z,100464.42
2018-08-27T13:51:08.331Z,100459.50
2018-08-27T13:53:36.427Z,100471.06
2018-08-27T13:56:04.535Z,100460.11
2018-08-27T13:58:32.647Z,100455.31
2018-08-27T14:01:00.734Z,100446.25
2018-08-27T14:03:28.826Z,100446.61
2018-08-27T14:05:56.945Z,100446.73
2018-08-27T14:08:25.046Z,100433.09
2018-08-27T14:10:53.173Z,100449.50
2018-08-27T14:13:21.239Z,100450.66
2018-08-27T14:15:49.422Z,100447.85
2018-08-27T14:18:17.451Z,100456.48
2018-08-27T14:20:45.579Z,100451.86
2018-08-27T14:23:13.620Z,100457.03
2018-08-27T14:25:41.883Z,100444.75
2018-08-27T14:28:09.840Z,100454.45
2018-08-27T14:30:37.923Z,100456.51
2018-08-27T14:33:06.058Z,100454.06
2018-08-27T14:35:34.146Z,100452.98
2018-08-27T14:38:02.166Z,100457.86
2018-08-27T14:40:30.323Z,100464.28
2018-08-27T14:42:58.456Z,100464.61
2018-08-27T14:45:26.568Z,100466.88
2018-08-27T14:47:54.677Z,100457.59
2018-08-27T14:50:22.805Z,100463.33
2018-08-27T14:52:50.880Z,100471.72
2018-08-27T14:55:18.959Z,100472.44
2018-08-27T14:57:47.028Z,100471.08
2018-08-27T15:00:15.088Z,100474.39
2018-08-27T15:02:43.189Z,100472.88
2018-08-27T15:05:11.252Z,100464.75
2018-08-27T15:07:39.437Z,100476.31
2018-08-27T15:10:07.575Z,100471.50
2018-08-27T15:12:35.907Z,100473.48
2018-08-27T15:15:03.986Z,100471.04
2018-08-27T15:17:32.047Z,100473.20
2018-08-27T15:20:00.121Z,100469.91
2018-08-27T15:22:28.183Z,100469.87
2018-08-27T15:24:56.254Z,100469.02
2018-08-27T15:27:24.358Z,100472.61
2018-08-27T15:29:52.411Z,100475.87
2018-08-27T15:32:20.501Z,100478.58
2018-08-27T15:34:48.580Z,100472.09
2018-08-27T15:37:16.705Z,100474.30
2018-08-27T15:39:44.750Z,100469.93
2018-08-27T15:42:12.847Z,100470.19
2018-08-27T15:44:41.059Z,100480.27
2018-08-27T15:47:09.024Z,100473.50
2018-08-27T15:49:37.141Z,100482.58
2018-08-27T15:52:05.232Z,100485.58
2018-08-27T15:54:33.318Z,100482.56
2018-08-27T15:57:01.588Z,100483.50
2018-08-27T15:59:29.525Z,100486.27
2018-08-27T16:01:57.618Z,100480.52
2018-08-27T16:04:25.703Z,100475.36
2018-08-27T16:06:53.871Z,100478.66
2018-08-27T16:09:22.010Z,100476.76
2018-08-27T16:11:50.113Z,100478.63
2018-08-27T16:14:18.171Z,100477.55
2018-08-27T16:16:46.292Z,100480.77
2018-08-27T16:19:20.729Z,100478.52
2018-08-27T16:21:48.820Z,100483.67
2018-08-27T16:24:16.914Z,100480.17
2018-08-27T16:26:45.019Z,100489.16
2018-08-27T16:29:13.071Z,100482.44
2018-08-27T16:31:41.143Z,100484.83
2018-08-27T16:34:09.271Z,100486.74
2018-08-27T16:36:37.407Z,100484.84
2018-08-27T16:39:06.391Z,100484.76
2018-08-27T16:41:34.492Z,100482.00
2018-08-27T16:44:02.589Z,100480.70
2018-08-27T16:46:30.724Z,100472.04
2018-08-27T16:48:58.823Z,100472.33
2018-08-27T16:51:26.899Z,100478.66
2018-08-27T16:53:54.997Z,100476.20
2018-08-27T16:56:23.089Z,100485.59
2018-08-27T16:58:51.179Z,100480.39
2018-08-27T17:01:19.248Z,100479.31
2018-08-27T17:03:47.346Z,100471.80
2018-08-27T17:06:15.417Z,100476.39
2018-08-27T17:08:43.494Z,100481.52
2018-08-27T17:11:11.599Z,100490.84
2018-08-27T17:13:39.676Z,100487.30
2018-08-27T17:16:07.796Z,100489.44
2018-08-27T17:18:35.886Z,100493.75
2018-08-27T17:21:03.979Z,100496.49
2018-08-27T17:23:32.115Z,100498.30
2018-08-27T17:26:00.259Z,100500.45
2018-08-27T17:28:28.439Z,100500.22
2018-08-27T17:30:56.527Z,100504.67
2018-08-27T17:33:24.631Z,100502.80
2018-08-27T17:35:52.777Z,100503.25
2018-08-27T17:38:20.908Z,100512.84
2018-08-27T17:40:49.040Z,100517.64
2018-08-27T17:43:17.107Z,100519.65
2018-08-27T17:45:45.264Z,100518.38
2018-08-27T17:48:13.269Z,100524.17
2018-08-27T17:50:41.531Z,100520.07
2018-08-27T17:53:10.564Z,100524.63
2018-08-27T17:55:39.927Z,100528.14
2018-08-27T17:58:14.742Z,100534.05
2018-08-27T18:00:43.200Z,100540.08
2018-08-27T18:03:11.421Z,100543.03
2018-08-27T18:05:39.838Z,100540.91
2018-08-27T18:08:08.013Z,100545.87
2018-08-27T18:10:36.253Z,100553.75
2018-08-27T18:13:04.472Z,100551.70
2018-08-27T18:15:32.696Z,100548.66
2018-08-27T18:18:01.043Z,100558.55
2018-08-27T18:20:29.487Z,100559.78
2018-08-27T18:23:04.442Z,100563.63
2018-08-27T18:25:33.076Z,100568.16
2018-08-27T18:28:01.321Z,100567.41
2018-08-27T18:30:29.562Z,100575.06
2018-08-27T18:32:57.919Z,100580.69
2018-08-27T18:35:27.279Z,100587.09
2018-08-27T18:37:56.499Z,100584.77
2018-08-27T18:40:25.844Z,100592.61
2018-08-27T18:42:54.085Z,100595.59
2018-08-27T18:45:23.263Z,100595.27
2018-08-27T18:47:51.354Z,100595.33
2018-08-27T18:50:20.492Z,100604.93
2018-08-27T18:52:48.742Z,100602.31
2018-08-27T18:55:17.828Z,100599.59
2018-08-27T18:57:46.125Z,100591.10
2018-08-27T19:00:15.702Z,100612.86
2018-08-27T19:02:44.263Z,100612.80
2018-08-27T19:05:12.503Z,100614.73
2018-08-27T19:07:40.661Z,100606.30
2018-08-27T19:10:08.933Z,100619.34
2018-08-27T19:12:37.426Z,100621.89
2018-08-27T19:15:06.170Z,100629.50
2018-08-27T19:17:34.378Z,100638.64
2018-08-27T19:20:02.637Z,100638.15
2018-08-27T19:22:30.899Z,100637.89
2018-08-27T19:24:59.274Z,100636.80
2018-08-27T19:27:27.707Z,100632.27
2018-08-27T19:29:56.034Z,100638.14
2018-08-27T19:32:24.248Z,100634.18
2018-08-27T19:34:53.982Z,100631.53
2018-08-27T19:37:22.592Z,100623.45
2018-08-27T19:39:51.068Z,100622.72
2018-08-27T19:42:19.532Z,100625.19
2018-08-27T19:44:49.376Z,100640.48
2018-08-27T19:47:17.618Z,100637.66
2018-08-27T19:49:46.141Z,100639.74
2018-08-27T19:52:14.452Z,100644.39
2018-08-27T19:54:43.632Z,100642.23
2018-08-27T19:57:12.536Z,100643.28
2018-08-27T19:59:40.894Z,100643.39
2018-08-27T20:02:09.107Z,100643.20
2018-08-27T20:04:38.274Z,100639.99
2018-08-27T20:07:06.552Z,100648.97
2018-08-27T20:09:37.385Z,100656.80
2018-08-27T20:12:05.629Z,100649.78
2018-08-27T20:14:39.113Z,100658.55
2018-08-27T20:17:07.824Z,100655.66
2018-08-27T20:19:37.377Z,100656.80
2018-08-27T20:22:08.886Z,100662.51
2018-08-27T20:24:37.566Z,100655.66
2018-08-27T20:27:06.384Z,100660.98
2018-08-27T20:29:36.752Z,100664.82
2018-08-27T20:32:04.961Z,100666.98
2018-08-27T20:34:33.222Z,100665.39
2018-08-27T20:37:01.710Z,100683.16
2018-08-27T20:39:30.076Z,100681.11
2018-08-27T20:41:58.221Z,100678.20
2018-08-27T20:44:27.100Z,100680.09
2018-08-27T20:46:55.346Z,100683.16
2018-08-27T20:49:23.707Z,100685.69
2018-08-27T20:51:51.921Z,100695.57
2018-08-27T20:54:20.198Z,100695.94
2018-08-27T20:56:48.523Z,100703.53
2018-08-27T20:59:17.383Z,100711.67
2018-08-27T21:01:48.701Z,100709.85
2018-08-27T21:04:17.974Z,100713.17
2018-08-27T21:06:46.153Z,100718.48
2018-08-27T21:09:14.538Z,100722.22
2018-08-27T21:11:43.592Z,100726.91
2018-08-27T21:14:23.708Z,100728.30
2018-08-27T21:16:52.009Z,100735.90
2018-08-27T21:19:20.218Z,100735.53
2018-08-27T21:21:48.582Z,100745.63
2018-08-27T21:24:16.924Z,100743.66
2018-08-27T21:26:45.205Z,100738.64
2018-08-27T21:29:14.095Z,100742.86
2018-08-27T21:31:42.836Z,100747.50
2018-08-27T21:34:11.861Z,100738.79
2018-08-27T21:36:40.071Z,100744.27
2018-08-27T21:39:08.935Z,100740.14
2018-08-27T21:41:37.196Z,100745.91
2018-08-27T21:44:05.671Z,100745.68
2018-08-27T21:46:33.888Z,100743.48
2018-08-27T21:49:02.097Z,100748.09
2018-08-27T21:51:31.027Z,100750.78
2018-08-27T21:53:59.375Z,100761.75
2018-08-27T21:56:27.674Z,100758.59
2018-08-27T21:58:55.861Z,100762.63
2018-08-27T22:01:24.024Z,100770.16
2018-08-27T22:03:57.398Z,100775.36
2018-08-27T22:06:25.638Z,100778.80
2018-08-27T22:08:53.895Z,100786.67
2018-08-27T22:11:21.946Z,100774.42
2018-08-27T22:13:50.027Z,100784.97
2018-08-27T22:16:18.094Z,100788.50
2018-08-27T22:18:46.159Z,100796.57
2018-08-27T22:21:14.237Z,100797.72
2018-08-27T22:23:42.323Z,100803.27
2018-08-27T22:26:10.471Z,100794.77
2018-08-27T22:28:38.587Z,100797.02
2018-08-27T22:31:06.673Z,100807.73
2018-08-27T22:33:34.724Z,100808.79
2018-08-27T22:36:02.783Z,100810.63
2018-08-27T22:38:30.895Z,100807.68
2018-08-27T22:40:58.967Z,100816.27
2018-08-27T22:43:27.027Z,100813.93
2018-08-27T22:45:55.087Z,100818.52
2018-08-27T22:48:23.142Z,100825.83
2018-08-27T22:50:51.211Z,100817.95
2018-08-27T22:53:19.267Z,100823.06
2018-08-27T22:55:47.372Z,100830.02
2018-08-27T22:58:15.558Z,100836.91
2018-08-27T23:00:43.619Z,100836.11
2018-08-27T23:03:17.081Z,100838.16
2018-08-27T23:05:45.180Z,100836.31
2018-08-27T23:08:13.226Z,100846.63
2018-08-27T23:10:41.305Z,100845.27
2018-08-27T23:13:09.376Z,100840.62
2018-08-27T23:15:37.479Z,100847.14
2018-08-27T23:18:05.643Z,100846.03
2018-08-27T23:20:33.727Z,100852.72
2018-08-27T23:23:01.811Z,100850.52
2018-08-27T23:25:29.867Z,100850.11
2018-08-27T23:27:57.910Z,100850.59
2018-08-27T23:30:25.998Z,100855.03
2018-08-27T23:32:54.044Z,100852.89
2018-08-27T23:35:22.103Z,100852.46
2018-08-27T23:37:50.206Z,100856.00
2018-08-27T23:40:18.320Z,100851.34
2018-08-27T23:42:46.407Z,100855.88
2018-08-27T23:45:14.475Z,100855.22
2018-08-27T23:47:42.559Z,100854.98
2018-08-27T23:50:10.636Z,100861.52
2018-08-27T23:52:38.857Z,100868.51
2018-08-27T23:55:06.947Z,100869.59
2018-08-27T23:57:35.108Z,100874.23
